KSJN/SJN METAR and TAF weather

Enter ICAO airport designator
Station Type Date Time Source
KSJN METAR 2020/09/19 21:54 UTC NOAA

KSJN 192154Z AUTO VRB06KT 10SM CLR 29/02 A3012 RMK AO2 SLP099 T02940017


Station Type Date Time Source
KSJN Decoded METAR 2020/09/19 21:54 UTC NOAA

ST JOHNS INDUSTRIAL AIRPRK, AZ, United States (KSJN) 34-31N 109-23W 1745M
Sep 19, 2020 - 05:54 PM EDT / 2020.09.19 2154 UTC
Wind: Variable at 7 MPH (6 KT):0
Visibility: 10 mile(s):0
Sky conditions: clear
Temperature: 84.9 F (29.4 C)
Dew Point: 35.1 F (1.7 C)
Relative Humidity: 16%
Pressure (altimeter): 30.12 in. Hg (1019 hPa)
ob: KSJN 192154Z AUTO VRB06KT 10SM CLR 29/02 A3012 RMK AO2 SLP099 T02940017
cycle: 22

Station Type Date Time Source
KSJN TAF UTC NOAA

Error!

Example: see airport list